Time;durP1;ratioP1;P1;durP2;ratioP2;P2;SDS_P1;SDS_P2;PMS_P1;PMS_P2;Temp;Humidity;BMP_temperature;BMP_pressure;BME280_temperature;BME280_humidity;BME280_pressure;Samples;Min_cycle;Max_cycle;Signal;HPM_P1;HPM_P2
2022/12/23 00:00:44;;;;;;;80.33;51.13;;;;;;;2.92;85.23;99488.47;5052134;28;20193;-54
2022/12/23 00:03:11;;;;;;;77.60;49.83;;;;;;;2.88;84.89;99489.13;5051899;28;20196;-54
2022/12/23 00:05:39;;;;;;;79.20;48.50;;;;;;;2.86;85.18;99496.66;5051917;28;20192;-54
2022/12/23 00:08:07;;;;;;;82.00;58.05;;;;;;;2.94;85.28;99497.00;5053769;28;20474;-54
2022/12/23 00:10:34;;;;;;;71.90;47.27;;;;;;;3.02;85.16;99492.31;5057882;28;20188;-56
2022/12/23 00:15:46;;;;;;;62.57;41.07;;;;;;;2.96;84.46;99491.22;5051957;28;20200;-53
2022/12/23 00:18:13;;;;;;;72.60;43.63;;;;;;;2.99;84.40;99498.94;5051901;28;20597;-53
2022/12/23 00:20:40;;;;;;;61.57;41.93;;;;;;;2.97;84.54;99489.53;5051665;28;20184;-53
2022/12/23 00:23:07;;;;;;;65.67;41.73;;;;;;;3.02;84.39;99497.38;5069539;28;20196;-53
2022/12/23 00:25:41;;;;;;;62.03;41.93;;;;;;;2.94;84.45;99482.66;5071907;28;20654;-53
2022/12/23 00:28:10;;;;;;;64.47;43.73;;;;;;;3.05;84.11;99485.66;5071721;28;20223;-53
2022/12/23 00:30:38;;;;;;;66.87;42.67;;;;;;;3.10;84.26;99488.44;5072539;28;20187;-54
2022/12/23 00:33:06;;;;;;;64.00;41.63;;;;;;;3.10;83.73;99491.84;5071761;28;20624;-53
2022/12/23 00:35:33;;;;;;;62.73;41.70;;;;;;;3.12;83.48;99490.25;5072045;28;20195;-53
2022/12/23 00:38:00;;;;;;;60.30;41.07;;;;;;;3.12;83.41;99485.16;5072273;28;20554;-53
2022/12/23 00:43:10;;;;;;;72.00;49.83;;;;;;;3.16;83.57;99487.03;5070799;28;20510;-53
2022/12/23 00:45:37;;;;;;;76.90;44.27;;;;;;;3.18;83.19;99489.66;5072077;28;20188;-53
2022/12/23 00:50:52;;;;;;;70.33;43.40;;;;;;;3.10;83.49;99485.91;5071875;28;20187;-53
2022/12/23 00:53:19;;;;;;;72.23;45.20;;;;;;;3.07;83.37;99485.75;5072217;28;20280;-53
2022/12/23 00:55:47;;;;;;;65.03;44.47;;;;;;;3.05;83.74;99487.38;5072081;28;20195;-53
2022/12/23 00:58:15;;;;;;;76.37;45.57;;;;;;;3.00;83.85;99484.59;5071845;28;20665;-53
2022/12/23 01:06:12;;;;;;;64.50;44.70;;;;;;;2.96;83.90;99468.38;5071835;28;20591;-53
2022/12/23 01:08:39;;;;;;;72.90;45.67;;;;;;;2.94;83.86;99471.63;5074083;28;20184;-53
2022/12/23 01:11:08;;;;;;;66.47;44.00;;;;;;;2.85;84.44;99459.41;5075162;28;20653;-53
2022/12/23 01:13:35;;;;;;;66.93;44.13;;;;;;;2.90;84.30;99465.56;5075169;28;20184;-53
2022/12/23 01:16:03;;;;;;;62.80;43.23;;;;;;;2.87;84.29;99460.34;5075091;28;20183;-53
2022/12/23 01:18:33;;;;;;;64.13;42.10;;;;;;;2.85;84.67;99461.97;5074888;28;20589;-53
2022/12/23 01:21:01;;;;;;;62.73;41.97;;;;;;;2.88;84.68;99454.47;5075226;28;20185;-53
2022/12/23 01:23:28;;;;;;;64.23;42.27;;;;;;;2.90;84.52;99462.16;5075170;28;20187;-53
2022/12/23 01:25:57;;;;;;;66.50;42.67;;;;;;;2.87;84.77;99459.47;5074806;28;20188;-53
2022/12/23 01:28:24;;;;;;;64.60;44.23;;;;;;;2.72;84.45;99428.34;5074884;28;20624;-53
2022/12/23 01:30:50;;;;;;;67.43;46.23;;;;;;;2.82;84.58;99456.75;5070017;28;20254;-53
2022/12/23 01:33:17;;;;;;;66.27;40.90;;;;;;;2.75;84.60;99447.09;5070919;28;20191;-54
2022/12/23 01:35:46;;;;;;;59.57;39.37;;;;;;;2.82;84.89;99446.59;5054925;28;20200;-53
2022/12/23 01:38:13;;;;;;;64.00;42.50;;;;;;;2.83;85.23;99443.22;5057885;28;20206;-53
2022/12/23 01:40:41;;;;;;;62.63;42.10;;;;;;;2.84;85.13;99437.38;5059745;28;20188;-53
2022/12/23 01:43:14;;;;;;;62.63;42.10;;;;;;;2.88;84.96;99438.38;5072612;28;20183;-55
2022/12/23 01:45:41;;;;;;;60.90;40.60;;;;;;;2.24;84.87;99339.09;5074378;28;20270;-53
2022/12/23 01:48:10;;;;;;;60.87;40.13;;;;;;;2.86;85.05;99440.84;5074781;28;20234;-53
2022/12/23 01:50:40;;;;;;;57.67;40.67;;;;;;;2.76;85.04;99431.09;5075120;28;20249;-53
2022/12/23 01:53:11;;;;;;;62.00;40.03;;;;;;;2.78;85.12;99429.47;5074452;28;20241;-53
2022/12/23 01:55:43;;;;;;;60.33;39.53;;;;;;;2.71;84.83;99435.09;5074217;28;20194;-54
2022/12/23 01:58:13;;;;;;;59.07;40.30;;;;;;;2.71;84.94;99432.56;5064248;28;20189;-53
2022/12/23 02:03:44;;;;;;;62.67;38.97;;;;;;;2.75;85.13;99447.09;5074520;28;20191;-54
2022/12/23 02:09:19;;;;;;;61.20;39.37;;;;;;;2.72;85.00;99421.59;5074196;28;20179;-54
2022/12/23 02:12:31;;;;;;;53.03;35.10;;;;;;;2.68;84.96;99406.16;5074248;28;20260;-54
2022/12/23 02:18:16;;;;;;;57.37;37.43;;;;;;;2.65;85.37;99418.69;5074159;28;20190;-53
2022/12/23 02:21:17;;;;;;;53.53;36.80;;;;;;;2.65;85.80;99422.13;5073117;28;20187;-53
2022/12/23 02:24:15;;;;;;;54.07;36.80;;;;;;;2.62;85.84;99424.50;5051110;28;20194;-54
2022/12/23 02:27:04;;;;;;;56.77;38.30;;;;;;;2.67;85.77;99423.03;5073369;28;20234;-54
2022/12/23 02:30:17;;;;;;;59.33;43.58;;;;;;;2.72;85.73;99421.59;5065509;28;20495;-54
2022/12/23 02:33:14;;;;;;;54.53;38.27;;;;;;;2.75;85.59;99419.19;5011919;28;20185;-53
2022/12/23 02:35:46;;;;;;;50.47;35.70;;;;;;;2.75;85.57;99421.72;5024660;28;20256;-54
2022/12/23 02:38:18;;;;;;;47.60;35.07;;;;;;;2.77;85.71;99420.16;5074085;28;20191;-54
2022/12/23 02:40:55;;;;;;;54.80;35.03;;;;;;;2.70;85.36;99423.19;5073658;28;20250;-53
2022/12/23 02:43:31;;;;;;;47.93;34.57;;;;;;;2.50;85.70;99388.44;5073564;28;20184;-53
2022/12/23 02:46:04;;;;;;;49.07;35.17;;;;;;;2.62;85.89;99414.38;5073501;28;20191;-54
2022/12/23 02:48:37;;;;;;;53.57;35.30;;;;;;;2.47;86.32;99390.84;5062931;28;20281;-54
2022/12/23 02:51:07;;;;;;;47.20;34.53;;;;;;;2.55;86.35;99402.22;5068636;28;20282;-54
2022/12/23 02:53:37;;;;;;;52.70;32.33;;;;;;;2.57;86.27;99394.66;5053489;28;20596;-53
2022/12/23 02:56:06;;;;;;;51.83;34.07;;;;;;;2.60;86.13;99397.34;5053371;28;20188;-53
2022/12/23 02:58:40;;;;;;;53.63;36.60;;;;;;;2.65;86.06;99408.56;5052664;28;20524;-54
2022/12/23 03:01:08;;;;;;;43.43;31.90;;;;;;;2.66;86.21;99408.66;5052974;28;20185;-53
2022/12/23 03:03:37;;;;;;;43.67;30.97;;;;;;;2.68;85.92;99406.16;5053184;28;20188;-54
2022/12/23 03:06:15;;;;;;;39.67;27.60;;;;;;;2.69;86.01;99397.78;5052927;28;20184;-53
2022/12/23 03:08:44;;;;;;;42.77;29.07;;;;;;;2.70;86.08;99397.81;5065448;28;20215;-54
2022/12/23 03:11:13;;;;;;;43.00;29.80;;;;;;;2.75;85.81;99406.50;5072794;28;20245;-54
2022/12/23 03:13:56;;;;;;;44.27;30.37;;;;;;;2.78;85.82;99401.56;5073097;28;20209;-54
2022/12/23 03:16:27;;;;;;;47.43;30.07;;;;;;;2.76;85.89;99395.56;5072773;28;20186;-53
2022/12/23 03:19:07;;;;;;;40.10;28.83;;;;;;;2.80;85.35;99399.13;5073101;28;20187;-53
2022/12/23 03:21:40;;;;;;;46.03;28.17;;;;;;;2.78;85.62;99399.03;5072549;28;20172;-54
2022/12/23 03:24:17;;;;;;;46.63;30.70;;;;;;;2.82;85.35;99398.38;5071824;28;20188;-54
2022/12/23 03:26:50;;;;;;;42.07;29.37;;;;;;;2.81;85.75;99393.22;5072567;28;20604;-54
2022/12/23 03:29:24;;;;;;;42.63;29.30;;;;;;;2.79;85.59;99388.09;5072873;28;20346;-53
2022/12/23 03:31:54;;;;;;;40.87;28.57;;;;;;;2.69;85.27;99370.72;5072600;28;20187;-53
2022/12/23 03:34:29;;;;;;;45.50;28.03;;;;;;;2.73;85.69;99387.81;5072444;28;20187;-54
2022/12/23 03:36:58;;;;;;;40.97;28.63;;;;;;;2.72;85.55;99370.00;5073156;28;20191;-53
2022/12/23 03:39:31;;;;;;;37.90;27.07;;;;;;;2.78;85.46;99381.28;5072565;28;20183;-54
2022/12/23 03:42:04;;;;;;;44.17;29.90;;;;;;;2.70;85.93;99362.31;5072267;28;20600;-54
2022/12/23 03:44:36;;;;;;;45.20;29.43;;;;;;;2.69;85.86;99370.72;5072353;28;20185;-54
2022/12/23 03:47:09;;;;;;;43.47;30.87;;;;;;;2.79;85.56;99393.19;5072361;28;20689;-54
2022/12/23 03:49:42;;;;;;;49.33;33.13;;;;;;;2.76;86.03;99387.09;5072180;28;20184;-53
2022/12/23 03:52:12;;;;;;;46.00;31.50;;;;;;;2.72;86.30;99381.00;5072471;28;20218;-53
2022/12/23 03:54:43;;;;;;;72.97;37.93;;;;;;;2.77;86.13;99389.72;5072239;28;20190;-53
2022/12/23 03:57:11;;;;;;;48.97;30.60;;;;;;;2.77;85.92;99389.72;5072255;28;20249;-53
2022/12/23 03:59:41;;;;;;;58.50;33.17;;;;;;;2.78;86.06;99396.50;5071960;28;20188;-53
2022/12/23 04:02:14;;;;;;;50.10;27.60;;;;;;;2.72;86.08;99395.38;5072374;28;20209;-53
2022/12/23 04:04:53;;;;;;;42.60;27.53;;;;;;;2.55;86.20;99381.06;5072532;28;20534;-53
2022/12/23 04:07:25;;;;;;;41.53;27.83;;;;;;;2.64;86.66;99399.19;5072252;28;20271;-53
2022/12/23 04:09:53;;;;;;;42.20;27.17;;;;;;;2.61;86.59;99402.47;5072904;28;21001;-53
2022/12/23 04:12:22;;;;;;;46.97;29.43;;;;;;;2.62;86.50;99403.34;5072148;28;20187;-53
2022/12/23 04:14:50;;;;;;;44.43;29.37;;;;;;;2.61;86.46;99405.00;5072123;28;20188;-53
2022/12/23 04:17:18;;;;;;;38.27;27.00;;;;;;;2.59;86.12;99395.59;5071954;28;20203;-52
2022/12/23 04:19:47;;;;;;;40.47;27.90;;;;;;;2.53;86.72;99388.56;5072010;28;20187;-53
2022/12/23 04:22:15;;;;;;;41.10;27.87;;;;;;;2.58;86.92;99391.34;5071929;28;20181;-52
2022/12/23 04:24:42;;;;;;;45.30;33.33;;;;;;;2.60;87.00;99393.16;5071263;28;20437;-52
2022/12/23 04:27:12;;;;;;;41.37;30.23;;;;;;;2.64;86.38;99392.47;5071648;28;20222;-53
2022/12/23 04:29:39;;;;;;;41.00;31.40;;;;;;;2.64;87.11;99386.53;5071685;28;20425;-53
2022/12/23 04:32:06;;;;;;;37.13;26.23;;;;;;;2.62;86.71;99393.19;5072011;28;20553;-53
2022/12/23 04:34:33;;;;;;;36.97;26.07;;;;;;;2.68;86.43;99380.81;5072314;28;20189;-53
2022/12/23 04:37:01;;;;;;;41.93;27.83;;;;;;;2.70;86.35;99385.16;5071599;28;20249;-53
2022/12/23 04:39:28;;;;;;;45.37;28.90;;;;;;;2.66;86.30;99379.88;5071651;28;20187;-54
2022/12/23 04:41:55;;;;;;;44.20;31.50;;;;;;;2.69;85.90;99374.94;5071560;28;20425;-53
2022/12/23 04:44:21;;;;;;;40.77;27.97;;;;;;;2.69;86.42;99377.47;5075455;28;20634;-53
2022/12/23 04:46:48;;;;;;;47.88;34.00;;;;;;;2.75;87.03;99390.41;5074437;28;20503;-53
2022/12/23 04:49:15;;;;;;;47.77;32.10;;;;;;;2.73;86.39;99404.69;5075308;28;20216;-54
2022/12/23 04:51:42;;;;;;;43.97;31.20;;;;;;;2.73;86.22;99403.03;5075270;28;20180;-54
2022/12/23 04:54:10;;;;;;;38.37;27.43;;;;;;;2.76;86.18;99397.22;5075883;28;20188;-53
2022/12/23 04:56:37;;;;;;;40.27;27.37;;;;;;;2.77;86.43;99393.91;5075419;28;20237;-53
2022/12/23 04:59:03;;;;;;;40.83;28.67;;;;;;;2.76;86.47;99385.44;5075625;28;20189;-53
2022/12/23 05:01:30;;;;;;;41.70;30.00;;;;;;;2.65;86.48;99386.59;5075152;28;20639;-53
2022/12/23 05:03:57;;;;;;;42.43;30.13;;;;;;;2.68;86.41;99393.50;5075390;28;20187;-54
2022/12/23 05:06:24;;;;;;;43.03;30.07;;;;;;;2.69;86.65;99408.75;5074996;28;20191;-54
2022/12/23 05:08:51;;;;;;;41.70;30.43;;;;;;;2.70;86.92;99407.09;5075402;28;20215;-53
2022/12/23 05:11:19;;;;;;;43.20;30.20;;;;;;;2.56;86.88;99386.19;5075623;28;20573;-53
2022/12/23 05:13:46;;;;;;;47.97;33.10;;;;;;;2.42;86.59;99379.59;5075037;28;20188;-53
2022/12/23 05:16:12;;;;;;;51.50;32.30;;;;;;;2.48;86.63;99395.09;5075145;28;20191;-54
2022/12/23 05:18:39;;;;;;;53.90;40.97;;;;;;;2.47;87.40;99395.94;5074118;28;20464;-54
2022/12/23 05:21:06;;;;;;;49.10;34.23;;;;;;;2.57;87.30;99385.41;5074692;28;20265;-53
2022/12/23 05:23:33;;;;;;;46.40;32.17;;;;;;;2.64;87.49;99389.94;5074913;28;20191;-53
2022/12/23 05:26:00;;;;;;;54.77;33.33;;;;;;;2.64;87.40;99395.00;5074671;28;20241;-53
2022/12/23 05:28:28;;;;;;;42.53;31.90;;;;;;;2.66;87.31;99392.56;5074894;28;20227;-54
2022/12/23 05:30:59;;;;;;;55.20;34.33;;;;;;;2.67;87.42;99406.94;5074759;28;20531;-53
2022/12/23 05:33:26;;;;;;;53.90;34.77;;;;;;;2.73;86.98;99413.19;5074589;28;20647;-53
2022/12/23 05:35:53;;;;;;;51.20;35.93;;;;;;;2.72;86.26;99413.13;5074952;28;20195;-54
2022/12/23 05:38:20;;;;;;;57.07;34.27;;;;;;;2.67;86.52;99412.91;5074731;28;20550;-54
2022/12/23 05:40:47;;;;;;;58.17;41.08;;;;;;;2.71;86.69;99417.34;5065963;28;20819;-54
2022/12/23 05:43:14;;;;;;;49.07;34.57;;;;;;;2.74;86.58;99414.06;5062646;28;20195;-54
2022/12/23 05:45:42;;;;;;;54.03;36.47;;;;;;;2.76;86.30;99423.47;5056890;28;20203;-54
2022/12/23 05:48:09;;;;;;;49.60;34.27;;;;;;;2.81;86.16;99423.66;5054318;28;20212;-53
2022/12/23 05:50:37;;;;;;;60.30;37.67;;;;;;;2.74;86.10;99411.53;5054288;28;20674;-53
2022/12/23 05:53:04;;;;;;;59.30;39.87;;;;;;;2.81;86.57;99431.28;5054555;28;20188;-53
2022/12/23 05:55:31;;;;;;;65.53;39.90;;;;;;;2.85;86.51;99423.91;5052935;28;20642;-53
2022/12/23 05:57:58;;;;;;;51.97;37.53;;;;;;;2.87;86.33;99421.41;5068606;28;20191;-54
2022/12/23 06:00:25;;;;;;;86.87;53.30;;;;;;;2.90;85.81;99427.50;5071452;28;20192;-53
2022/12/23 06:02:53;;;;;;;59.03;41.10;;;;;;;2.85;86.16;99431.50;5053796;28;20185;-53
2022/12/23 06:05:20;;;;;;;76.17;47.40;;;;;;;2.83;86.43;99435.63;5054130;28;20258;-54
2022/12/23 06:07:47;;;;;;;71.87;44.93;;;;;;;2.90;86.59;99431.72;5054196;28;20212;-54
2022/12/23 06:10:14;;;;;;;71.70;42.77;;;;;;;2.90;86.56;99426.63;5054159;28;20188;-53
2022/12/23 06:12:40;;;;;;;64.07;41.37;;;;;;;2.88;86.08;99418.09;5053753;28;20180;-53
2022/12/23 06:15:08;;;;;;;62.30;39.30;;;;;;;2.88;85.84;99418.94;5053688;28;20185;-54
2022/12/23 06:17:35;;;;;;;61.23;40.83;;;;;;;2.90;85.77;99421.56;5053783;28;20180;-54
2022/12/23 06:20:04;;;;;;;59.63;41.37;;;;;;;2.89;86.04;99425.75;5053414;28;20216;-53
2022/12/23 06:22:30;;;;;;;55.37;39.57;;;;;;;2.88;86.02;99421.47;5053337;28;20651;-54
2022/12/23 06:24:57;;;;;;;64.07;41.70;;;;;;;2.88;86.03;99426.53;5053804;28;20199;-54
2022/12/23 06:27:24;;;;;;;59.27;39.90;;;;;;;2.88;85.76;99429.09;5053455;28;20598;-54
2022/12/23 06:29:51;;;;;;;63.50;40.10;;;;;;;2.91;85.72;99425.84;5053634;28;20218;-54
2022/12/23 06:32:17;;;;;;;63.10;40.60;;;;;;;2.96;85.97;99435.41;5057156;28;20192;-54
2022/12/23 06:34:45;;;;;;;67.37;42.97;;;;;;;3.04;85.58;99432.31;5073685;28;20616;-54
2022/12/23 06:37:13;;;;;;;69.00;42.03;;;;;;;3.07;85.70;99435.00;5071458;28;20187;-54
2022/12/23 06:39:40;;;;;;;63.67;41.73;;;;;;;3.14;85.64;99439.53;5073167;28;20203;-54
2022/12/23 06:42:07;;;;;;;62.90;43.57;;;;;;;3.18;85.33;99438.88;5072977;28;20195;-55
2022/12/23 06:44:34;;;;;;;72.17;43.77;;;;;;;3.18;85.22;99438.88;5072978;28;20697;-54
2022/12/23 06:47:00;;;;;;;68.93;44.10;;;;;;;3.24;84.28;99434.09;5073760;28;20194;-53
2022/12/23 06:49:27;;;;;;;72.63;45.10;;;;;;;3.24;84.29;99432.38;5073218;28;20215;-54
2022/12/23 06:51:54;;;;;;;77.57;47.10;;;;;;;3.29;84.56;99430.94;5073237;28;20187;-54
2022/12/23 06:54:22;;;;;;;86.17;55.07;;;;;;;3.56;84.56;99421.09;5073118;28;20188;-54
2022/12/23 06:56:49;;;;;;;98.43;59.90;;;;;;;3.57;82.77;99427.91;5072738;28;20642;-54
2022/12/23 06:59:15;;;;;;;98.53;60.87;;;;;;;3.48;83.13;99441.09;5072578;28;20191;-54
2022/12/23 07:01:42;;;;;;;125.97;79.13;;;;;;;3.48;82.95;99432.59;5073119;28;20183;-53
2022/12/23 07:04:09;;;;;;;105.03;62.73;;;;;;;3.44;83.63;99430.72;5072623;28;20184;-54
2022/12/23 07:06:36;;;;;;;108.20;68.27;;;;;;;3.35;83.84;99428.66;5072085;28;20241;-54
2022/12/23 07:09:03;;;;;;;102.53;68.13;;;;;;;3.35;83.62;99425.25;5072243;28;20219;-54
2022/12/23 07:11:31;;;;;;;113.37;62.17;;;;;;;3.39;83.72;99420.38;5072543;28;20184;-54
2022/12/23 07:13:59;;;;;;;85.17;54.47;;;;;;;3.24;83.42;99418.84;5073361;28;20188;-54
2022/12/23 07:16:26;;;;;;;104.13;61.30;;;;;;;3.26;83.71;99437.53;5072218;28;20187;-53
2022/12/23 07:18:52;;;;;;;107.07;65.93;;;;;;;3.13;84.77;99445.44;5072377;28;20196;-54
2022/12/23 07:21:19;;;;;;;112.93;66.87;;;;;;;3.06;84.67;99441.75;5072297;28;20665;-54
2022/12/23 07:23:46;;;;;;;87.50;54.67;;;;;;;3.12;85.28;99441.16;5072392;28;20226;-54
2022/12/23 07:26:13;;;;;;;100.53;62.83;;;;;;;3.13;85.03;99455.59;5072368;28;20222;-54
2022/12/23 07:28:43;;;;;;;109.57;61.40;;;;;;;3.16;85.44;99450.66;5070124;28;20229;-54
2022/12/23 07:31:10;;;;;;;100.57;60.90;;;;;;;3.28;85.63;99446.09;5070857;28;20191;-54
2022/12/23 07:33:37;;;;;;;79.90;54.73;;;;;;;3.34;85.18;99443.81;5072022;28;20190;-55
2022/12/23 07:36:04;;;;;;;84.27;58.40;;;;;;;3.02;84.70;99381.53;5068353;28;20185;-54
2022/12/23 07:38:31;;;;;;;100.60;56.33;;;;;;;3.54;84.21;99450.66;5067045;28;20198;-54
2022/12/23 07:40:57;;;;;;;108.27;58.87;;;;;;;3.54;84.02;99445.56;5070753;28;20184;-54
2022/12/23 07:43:24;;;;;;;114.25;68.22;;;;;;;3.41;84.02;99420.41;5069331;28;20434;-55
2022/12/23 07:45:52;;;;;;;100.73;63.63;;;;;;;3.67;83.94;99452.03;5068692;28;20193;-54
2022/12/23 07:48:19;;;;;;;102.93;64.20;;;;;;;3.73;83.38;99449.75;5068965;28;20247;-54
2022/12/23 07:50:46;;;;;;;102.50;59.80;;;;;;;3.68;83.10;99452.06;5051860;28;20200;-54
2022/12/23 07:53:13;;;;;;;88.77;59.27;;;;;;;3.63;83.00;99429.81;5056642;28;20187;-55
2022/12/23 07:55:39;;;;;;;98.97;61.83;;;;;;;3.80;82.63;99459.34;5071230;28;20199;-53
2022/12/23 07:58:07;;;;;;;101.83;60.90;;;;;;;3.89;82.85;99465.69;5070275;28;20216;-54
2022/12/23 08:00:34;;;;;;;99.33;56.47;;;;;;;4.00;82.52;99458.53;5070315;28;20588;-55
2022/12/23 08:03:02;;;;;;;100.78;70.07;;;;;;;4.09;82.44;99461.44;5069413;28;20498;-54
2022/12/23 08:05:29;;;;;;;92.60;56.03;;;;;;;4.03;81.17;99458.66;5068213;28;20180;-54
2022/12/23 08:07:56;;;;;;;84.47;49.53;;;;;;;4.00;81.26;99448.34;5065202;28;20275;-56
2022/12/23 08:10:22;;;;;;;80.50;53.27;;;;;;;3.94;80.94;99426.09;5071411;28;20215;-54
2022/12/23 08:12:49;;;;;;;87.40;53.43;;;;;;;4.04;81.49;99452.75;5070570;28;20185;-56
2022/12/23 08:15:16;;;;;;;82.80;52.87;;;;;;;4.06;81.08;99454.56;5070211;28;20180;-54
2022/12/23 08:17:43;;;;;;;91.50;53.40;;;;;;;4.20;80.98;99447.50;5072415;28;20183;-54
2022/12/23 08:20:11;;;;;;;108.53;64.07;;;;;;;4.32;80.69;99449.63;5074894;28;20430;-54
2022/12/23 08:22:38;;;;;;;92.63;58.47;;;;;;;4.47;80.82;99457.91;5075210;28;20736;-54
2022/12/23 08:25:06;;;;;;;95.00;60.07;;;;;;;4.56;79.53;99460.81;5075290;28;20181;-54
2022/12/23 08:27:33;;;;;;;102.33;58.30;;;;;;;4.65;79.03;99466.22;5072632;28;20296;-54
2022/12/23 08:30:00;;;;;;;93.47;55.83;;;;;;;4.75;79.02;99453.06;5075469;28;20203;-54
2022/12/23 08:32:27;;;;;;;80.57;53.70;;;;;;;4.84;78.00;99457.63;5074782;28;20551;-56
2022/12/23 08:34:55;;;;;;;88.00;55.23;;;;;;;4.96;77.56;99451.34;5074876;28;20269;-54
2022/12/23 08:37:24;;;;;;;84.27;51.77;;;;;;;5.00;76.94;99455.72;5074801;28;20539;-54
2022/12/23 08:39:50;;;;;;;68.10;49.83;;;;;;;5.07;76.22;99457.69;5075333;28;20466;-57
2022/12/23 08:42:17;;;;;;;76.70;50.73;;;;;;;5.17;76.31;99446.16;5075358;28;20714;-57
2022/12/23 08:44:44;;;;;;;76.07;50.43;;;;;;;5.29;76.01;99456.78;5075304;28;20347;-57
2022/12/23 08:47:11;;;;;;;67.17;47.23;;;;;;;5.44;75.20;99444.59;5071354;28;20184;-57
2022/12/23 08:49:38;;;;;;;64.20;46.07;;;;;;;5.61;73.89;99453.69;5072439;28;20695;-58
2022/12/23 08:52:05;;;;;;;70.25;49.25;;;;;;;5.64;72.08;99441.06;5073369;28;20460;-57
2022/12/23 08:54:33;;;;;;;58.80;41.80;;;;;;;5.75;71.63;99455.03;5075260;28;20191;-57
2022/12/23 08:56:59;;;;;;;51.45;39.90;;;;;;;5.89;71.03;99451.31;5074471;28;20441;-57
2022/12/23 08:59:26;;;;;;;40.37;28.93;;;;;;;6.00;68.78;99448.25;5074872;28;20190;-57
2022/12/23 09:01:53;;;;;;;43.23;29.83;;;;;;;6.15;68.15;99442.00;5074935;28;20183;-57
2022/12/23 09:04:20;;;;;;;42.90;33.20;;;;;;;6.27;67.11;99436.41;5074857;28;20635;-57
2022/12/23 09:06:46;;;;;;;51.97;36.93;;;;;;;6.47;67.33;99437.91;5074872;28;20645;-57
2022/12/23 09:09:15;;;;;;;64.40;40.63;;;;;;;6.59;66.67;99430.66;5074797;28;20253;-57
2022/12/23 09:11:44;;;;;;;67.63;43.07;;;;;;;6.53;66.13;99425.34;5074527;28;20252;-56
2022/12/23 09:14:12;;;;;;;64.17;43.17;;;;;;;6.48;66.00;99409.88;5073029;28;20210;-57
2022/12/23 09:16:39;;;;;;;63.20;45.50;;;;;;;6.45;66.47;99414.03;5068613;28;20196;-58
2022/12/23 09:19:06;;;;;;;67.70;44.73;;;;;;;6.63;66.78;99413.72;5073390;28;20269;-56
2022/12/23 09:21:33;;;;;;;68.70;46.93;;;;;;;6.79;66.48;99408.25;5073461;28;20240;-56
2022/12/23 09:24:00;;;;;;;70.83;45.43;;;;;;;7.01;65.68;99415.72;5073284;28;20186;-56
2022/12/23 09:26:29;;;;;;;74.53;45.40;;;;;;;7.19;64.59;99402.63;5073215;28;20182;-57
2022/12/23 09:28:58;;;;;;;83.53;50.83;;;;;;;7.35;63.77;99410.75;5072929;28;20229;-56
2022/12/23 09:31:25;;;;;;;75.43;49.23;;;;;;;7.48;63.07;99406.81;5072740;28;20665;-57
2022/12/23 09:33:53;;;;;;;65.30;46.37;;;;;;;7.37;63.00;99386.09;5073704;28;20293;-57
2022/12/23 09:36:21;;;;;;;66.00;48.20;;;;;;;7.60;62.23;99399.50;5067853;28;20621;-57
2022/12/23 09:38:48;;;;;;;76.00;52.43;;;;;;;7.69;62.80;99395.47;5074282;28;20182;-57
2022/12/23 09:41:29;;;;;;;83.77;55.07;;;;;;;7.85;62.31;99399.28;5070904;28;20192;-57
2022/12/23 09:44:14;;;;;;;79.23;55.00;;;;;;;7.95;61.84;99410.59;5053951;28;20183;-57
2022/12/23 09:46:47;;;;;;;80.43;55.90;;;;;;;8.00;60.96;99406.47;5053454;28;20191;-57
2022/12/23 09:49:17;;;;;;;96.10;59.60;;;;;;;7.96;60.99;99392.75;5053108;28;20246;-57
2022/12/23 09:51:45;;;;;;;82.17;53.97;;;;;;;7.86;61.60;99392.47;5052159;28;20188;-57
2022/12/23 09:54:17;;;;;;;81.73;51.10;;;;;;;7.79;61.37;99390.59;5052142;28;20207;-58
2022/12/23 09:56:51;;;;;;;97.13;57.57;;;;;;;7.79;61.37;99390.59;5054084;28;20191;-57
2022/12/23 09:59:28;;;;;;;88.63;57.83;;;;;;;7.65;61.86;99383.44;5052695;28;20446;-57
2022/12/23 10:02:00;;;;;;;81.07;57.73;;;;;;;7.84;61.71;99381.34;5052458;28;20535;-57
2022/12/23 10:04:41;;;;;;;87.15;61.88;;;;;;;7.81;61.47;99387.25;5051992;28;20442;-57
2022/12/23 10:07:19;;;;;;;92.33;56.93;;;;;;;7.71;61.35;99382.72;5053188;28;20187;-57
2022/12/23 10:09:49;;;;;;;96.90;60.23;;;;;;;7.77;61.72;99372.66;5053174;28;20212;-57
2022/12/23 10:12:23;;;;;;;93.57;60.57;;;;;;;7.77;61.47;99347.09;5053487;28;20257;-57
2022/12/23 10:14:55;;;;;;;87.50;58.33;;;;;;;7.67;61.45;99356.22;5053527;28;20192;-57
2022/12/23 10:17:28;;;;;;;95.38;64.53;;;;;;;7.77;61.66;99371.78;5053447;28;20427;-57
2022/12/23 10:20:02;;;;;;;83.80;57.47;;;;;;;7.92;61.26;99375.59;5059971;28;20213;-58
2022/12/23 10:22:34;;;;;;;89.20;59.83;;;;;;;7.86;60.47;99351.53;5074124;28;20315;-56
2022/12/23 10:25:04;;;;;;;91.53;58.07;;;;;;;7.97;60.04;99362.91;5063137;28;20200;-57
2022/12/23 10:27:35;;;;;;;79.47;57.17;;;;;;;8.02;60.18;99363.91;5067356;28;20766;-57
2022/12/23 10:30:12;;;;;;;93.97;60.83;;;;;;;8.03;60.40;99363.06;5057821;28;20212;-57
2022/12/23 10:32:52;;;;;;;93.93;60.40;;;;;;;8.04;60.14;99362.25;5052795;28;20275;-58
2022/12/23 10:35:32;;;;;;;94.67;59.60;;;;;;;8.16;59.66;99359.94;5052421;28;20187;-57
2022/12/23 10:38:08;;;;;;;91.33;56.73;;;;;;;8.30;60.48;99362.03;5053024;28;20192;-57
2022/12/23 10:40:44;;;;;;;94.20;61.10;;;;;;;8.32;61.36;99365.50;5051418;28;20226;-57
2022/12/23 10:43:17;;;;;;;94.47;60.67;;;;;;;8.23;61.07;99369.53;5050989;28;20244;-57
2022/12/23 10:45:51;;;;;;;88.30;59.50;;;;;;;8.17;61.43;99347.22;5050716;28;20613;-57
2022/12/23 10:48:32;;;;;;;104.13;64.93;;;;;;;8.31;61.58;99357.78;5051287;28;20196;-56
2022/12/23 10:51:03;;;;;;;98.90;63.67;;;;;;;8.40;60.68;99355.47;5052024;28;20612;-56
2022/12/23 10:53:38;;;;;;;103.20;72.40;;;;;;;8.25;61.64;99349.94;5051423;28;20476;-57
2022/12/23 10:56:06;;;;;;;92.37;62.60;;;;;;;8.49;61.34;99355.63;5052162;28;20199;-57
2022/12/23 10:58:36;;;;;;;93.50;59.47;;;;;;;8.60;60.65;99356.75;5052201;28;20233;-57
2022/12/23 11:01:07;;;;;;;86.73;60.30;;;;;;;8.74;59.97;99347.66;5052277;28;20192;-57
2022/12/23 11:03:40;;;;;;;82.23;56.43;;;;;;;8.87;59.67;99347.06;5052310;28;20188;-57
2022/12/23 11:06:08;;;;;;;83.97;55.30;;;;;;;8.77;59.42;99350.28;5052780;28;20195;-57
2022/12/23 11:08:37;;;;;;;88.97;57.77;;;;;;;8.78;59.57;99352.03;5052949;28;20196;-57
2022/12/23 11:11:06;;;;;;;75.10;56.50;;;;;;;8.90;59.54;99346.25;5052457;28;20216;-57
2022/12/23 11:13:38;;;;;;;86.27;58.50;;;;;;;8.95;59.78;99347.25;5052223;28;20226;-56
2022/12/23 11:16:20;;;;;;;95.82;67.28;;;;;;;8.91;59.89;99322.38;5051173;28;20489;-57
2022/12/23 11:18:57;;;;;;;88.40;60.17;;;;;;;9.22;59.64;99334.09;5052041;28;20578;-57
2022/12/23 11:21:25;;;;;;;88.90;59.73;;;;;;;9.29;59.54;99338.50;5052289;28;20187;-56
2022/12/23 11:24:13;;;;;;;96.60;61.37;;;;;;;9.34;59.36;99339.44;5058506;28;20255;-57
2022/12/23 11:26:40;;;;;;;99.67;63.53;;;;;;;9.39;59.01;99337.84;5070313;28;20237;-56
2022/12/23 11:29:12;;;;;;;92.03;61.23;;;;;;;9.38;59.21;99338.66;5071369;28;20211;-57
2022/12/23 11:31:43;;;;;;;92.57;63.70;;;;;;;9.46;59.20;99329.41;5070619;28;20692;-56
2022/12/23 11:34:16;;;;;;;91.93;60.70;;;;;;;9.42;58.66;99318.22;5062261;28;20269;-57
2022/12/23 11:36:44;;;;;;;103.73;61.80;;;;;;;9.60;59.00;99315.13;5052191;28;20188;-56
2022/12/23 11:39:24;;;;;;;93.80;62.73;;;;;;;9.71;58.12;99318.75;5053797;28;20184;-57
2022/12/23 11:41:54;;;;;;;90.77;60.50;;;;;;;9.78;57.43;99317.16;5071854;28;20187;-56
2022/12/23 11:44:26;;;;;;;104.73;59.30;;;;;;;9.84;57.57;99314.66;5072026;28;20191;-56
2022/12/23 11:46:55;;;;;;;107.23;64.30;;;;;;;9.83;57.76;99316.38;5070878;28;20448;-57
2022/12/23 11:49:24;;;;;;;84.03;59.37;;;;;;;9.87;57.61;99315.59;5070138;28;20190;-57
2022/12/23 11:52:00;;;;;;;89.80;58.90;;;;;;;9.78;57.19;99289.78;5071686;28;20271;-57
2022/12/23 11:54:28;;;;;;;91.10;60.20;;;;;;;9.88;57.25;99304.50;5071705;28;20183;-57
2022/12/23 11:56:55;;;;;;;97.03;60.40;;;;;;;9.90;57.51;99307.94;5072537;28;20183;-57
2022/12/23 11:59:32;;;;;;;84.00;58.80;;;;;;;9.76;56.96;99294.03;5071717;28;20194;-57